createdAt,value
2017-09-15T00:01:37.063Z,99.20
2017-09-15T00:04:04.536Z,99.10
2017-09-15T00:06:32.764Z,99.20
2017-09-15T00:09:00.244Z,99.10
2017-09-15T00:11:27.712Z,98.70
2017-09-15T00:13:55.191Z,98.60
2017-09-15T00:16:23.420Z,98.50
2017-09-15T00:18:50.887Z,98.50
2017-09-15T00:21:18.351Z,98.40
2017-09-15T00:23:45.828Z,98.50
2017-09-15T00:26:14.060Z,98.60
2017-09-15T00:28:42.305Z,98.80
2017-09-15T00:31:09.771Z,98.70
2017-09-15T00:33:37.245Z,98.50
2017-09-15T00:36:04.707Z,98.40
2017-09-15T00:38:32.208Z,98.20
2017-09-15T00:40:59.683Z,98.40
2017-09-15T00:43:27.921Z,98.50
2017-09-15T00:45:55.388Z,98.60
2017-09-15T00:48:22.852Z,98.50
2017-09-15T00:50:50.332Z,98.20
2017-09-15T00:53:18.555Z,98.20
2017-09-15T00:55:46.040Z,98.10
2017-09-15T00:58:13.500Z,98.00
2017-09-15T01:00:40.981Z,98.00
2017-09-15T01:03:09.203Z,98.10
2017-09-15T01:05:36.681Z,98.00
2017-09-15T01:08:04.150Z,98.00
2017-09-15T01:10:31.625Z,98.10
2017-09-15T01:12:59.848Z,98.10
2017-09-15T01:15:27.324Z,98.10
2017-09-15T01:17:54.793Z,98.20
2017-09-15T01:20:22.271Z,98.20
2017-09-15T01:22:49.739Z,98.00
2017-09-15T01:25:17.981Z,98.10
2017-09-15T01:27:45.451Z,98.10
2017-09-15T01:30:12.920Z,98.00
2017-09-15T01:32:40.389Z,97.60
2017-09-15T01:35:08.633Z,97.80
2017-09-15T01:37:36.103Z,97.70
2017-09-15T01:40:03.585Z,97.60
2017-09-15T01:42:32.300Z,97.60
2017-09-15T01:44:59.780Z,97.60
2017-09-15T01:47:27.254Z,97.80
2017-09-15T01:49:54.731Z,97.60
2017-09-15T01:52:22.196Z,97.70
2017-09-15T01:54:50.441Z,98.00
2017-09-15T01:57:17.907Z,97.90
2017-09-15T01:59:45.386Z,98.00
2017-09-15T02:02:13.622Z,98.00
2017-09-15T02:04:41.104Z,98.00
2017-09-15T02:07:08.577Z,98.10
2017-09-15T02:09:36.049Z,98.10
2017-09-15T02:12:04.285Z,98.10
2017-09-15T02:14:31.750Z,98.10
2017-09-15T02:16:59.234Z,98.10
2017-09-15T02:19:27.467Z,97.80
2017-09-15T02:21:54.931Z,97.60
2017-09-15T02:24:22.404Z,97.60
2017-09-15T02:26:49.883Z,97.80
2017-09-15T02:29:18.119Z,97.80
2017-09-15T02:31:45.596Z,97.80
2017-09-15T02:34:13.070Z,97.70
2017-09-15T02:36:40.552Z,97.80
2017-09-15T02:39:08.785Z,97.90
2017-09-15T02:41:36.273Z,97.90
2017-09-15T02:44:04.510Z,98.20
2017-09-15T02:46:31.991Z,98.20
2017-09-15T02:48:59.443Z,98.20
2017-09-15T02:51:26.910Z,98.40
2017-09-15T02:53:54.404Z,98.60
2017-09-15T02:56:21.865Z,98.50
2017-09-15T02:58:49.339Z,98.50
2017-09-15T03:01:16.810Z,98.40
2017-09-15T03:03:44.279Z,98.40
2017-09-15T03:06:11.748Z,98.20
2017-09-15T03:08:39.223Z,98.30
2017-09-15T03:11:06.679Z,98.30
2017-09-15T03:13:34.155Z,98.30
2017-09-15T03:16:02.388Z,98.00
2017-09-15T03:18:29.863Z,97.90
2017-09-15T03:20:57.323Z,97.90
2017-09-15T03:23:24.815Z,97.80
2017-09-15T03:25:52.284Z,97.60
2017-09-15T03:28:19.752Z,97.30
2017-09-15T03:30:47.211Z,97.40
2017-09-15T03:33:14.687Z,96.80
2017-09-15T03:35:42.148Z,97.00
2017-09-15T03:38:09.624Z,97.10
2017-09-15T03:40:37.207Z,97.30
2017-09-15T03:43:05.447Z,97.30
2017-09-15T03:45:32.989Z,97.30
2017-09-15T03:48:00.456Z,96.90
2017-09-15T03:50:27.921Z,97.00
2017-09-15T03:52:55.393Z,96.80
2017-09-15T03:55:22.857Z,97.00
2017-09-15T03:57:50.336Z,96.80
2017-09-15T04:00:18.953Z,96.80
2017-09-15T04:02:46.440Z,96.80
2017-09-15T04:05:13.895Z,96.80
2017-09-15T04:07:41.389Z,96.70
2017-09-15T04:10:08.847Z,96.70
2017-09-15T04:12:37.079Z,96.70
2017-09-15T04:15:04.556Z,96.70
2017-09-15T04:17:32.012Z,96.60
2017-09-15T04:19:59.491Z,96.60
2017-09-15T04:22:26.947Z,96.50
2017-09-15T04:24:54.422Z,96.70
2017-09-15T04:27:22.656Z,96.70
2017-09-15T04:29:50.888Z,96.60
2017-09-15T04:32:18.344Z,96.60
2017-09-15T04:34:45.815Z,96.80
2017-09-15T04:37:13.285Z,96.80
2017-09-15T04:39:40.757Z,96.90
2017-09-15T04:42:08.220Z,97.00
2017-09-15T04:44:35.690Z,96.90
2017-09-15T04:47:03.159Z,97.00
2017-09-15T04:49:30.629Z,97.10
2017-09-15T04:51:58.862Z,97.20
2017-09-15T04:54:26.344Z,97.20
2017-09-15T04:56:53.799Z,97.30
2017-09-15T04:59:21.291Z,97.30
2017-09-15T05:01:49.529Z,97.50
2017-09-15T05:04:16.983Z,97.50
2017-09-15T05:06:45.232Z,97.40
2017-09-15T05:09:12.713Z,97.50
2017-09-15T05:11:40.178Z,97.50
2017-09-15T05:14:07.640Z,97.40
2017-09-15T05:16:35.112Z,97.10
2017-09-15T05:19:02.590Z,97.10
2017-09-15T05:21:30.825Z,97.10
2017-09-15T05:23:58.284Z,97.10
2017-09-15T05:26:25.756Z,97.00
2017-09-15T05:28:53.223Z,97.00
2017-09-15T05:31:25.624Z,96.80
2017-09-15T05:33:53.109Z,96.90
2017-09-15T05:36:20.573Z,96.90
2017-09-15T05:38:48.040Z,96.70
2017-09-15T05:41:15.518Z,96.60
2017-09-15T05:43:42.979Z,96.60
2017-09-15T05:46:10.457Z,96.70
2017-09-15T05:48:38.697Z,96.30
2017-09-15T05:51:06.172Z,96.20
2017-09-15T05:53:33.639Z,95.90
2017-09-15T05:56:01.143Z,96.20
2017-09-15T05:58:28.617Z,95.90
2017-09-15T06:00:56.095Z,95.90
2017-09-15T06:03:23.555Z,95.60
2017-09-15T06:05:51.024Z,95.30
2017-09-15T06:08:18.507Z,95.30
2017-09-15T06:10:46.743Z,95.10
2017-09-15T06:13:14.219Z,95.10
2017-09-15T06:15:41.674Z,95.20
2017-09-15T06:18:09.139Z,95.00
2017-09-15T06:20:36.598Z,95.10
2017-09-15T06:23:04.068Z,95.00
2017-09-15T06:25:32.299Z,94.50
2017-09-15T06:27:59.776Z,94.50
2017-09-15T06:30:27.233Z,94.70
2017-09-15T06:32:54.707Z,94.70
2017-09-15T06:35:22.164Z,94.70
2017-09-15T06:37:49.631Z,94.50
2017-09-15T06:40:17.886Z,94.30
2017-09-15T06:42:45.354Z,94.00
2017-09-15T06:45:12.824Z,93.50
2017-09-15T06:47:40.298Z,93.80
2017-09-15T06:50:08.528Z,93.70
2017-09-15T06:52:35.999Z,93.70
2017-09-15T06:55:03.472Z,93.10
2017-09-15T06:57:30.949Z,93.30
2017-09-15T06:59:59.176Z,93.60
2017-09-15T07:02:26.651Z,93.50
2017-09-15T07:04:54.144Z,93.70
2017-09-15T07:07:22.404Z,93.70
2017-09-15T07:09:49.875Z,93.80
2017-09-15T07:12:18.129Z,93.10
2017-09-15T07:14:45.595Z,93.10
2017-09-15T07:17:13.076Z,93.60
2017-09-15T07:19:40.555Z,93.10
2017-09-15T07:22:08.011Z,93.10
2017-09-15T07:24:35.488Z,93.00
2017-09-15T07:27:02.957Z,92.80
2017-09-15T07:29:30.428Z,92.80
2017-09-15T07:31:57.893Z,92.90
2017-09-15T07:34:25.375Z,93.10
2017-09-15T07:36:53.618Z,92.30
2017-09-15T07:39:21.120Z,92.30
2017-09-15T07:41:49.340Z,91.30
2017-09-15T07:44:16.812Z,91.20
2017-09-15T07:46:44.266Z,91.30
2017-09-15T07:49:11.746Z,91.30
2017-09-15T07:51:39.200Z,91.80
2017-09-15T07:54:06.671Z,91.70
2017-09-15T07:56:34.907Z,91.00
2017-09-15T07:59:02.376Z,91.00
2017-09-15T08:01:29.838Z,90.70
2017-09-15T08:03:57.322Z,90.20
2017-09-15T08:06:25.551Z,90.40
2017-09-15T08:08:53.019Z,90.40
2017-09-15T08:11:20.479Z,90.40
2017-09-15T08:13:47.955Z,90.50
2017-09-15T08:16:15.415Z,89.70
2017-09-15T08:18:42.894Z,89.80
2017-09-15T08:21:11.131Z,90.50
2017-09-15T08:23:38.607Z,90.50
2017-09-15T08:26:06.075Z,90.10
2017-09-15T08:28:33.544Z,89.50
2017-09-15T08:31:01.771Z,90.10
2017-09-15T08:33:29.235Z,90.10
2017-09-15T08:35:56.699Z,89.40
2017-09-15T08:38:24.171Z,89.30
2017-09-15T08:40:51.639Z,89.70
2017-09-15T08:43:19.100Z,88.40
2017-09-15T08:45:47.330Z,90.30
2017-09-15T08:48:14.798Z,90.20
2017-09-15T08:50:42.272Z,88.90
2017-09-15T08:53:09.743Z,89.00
2017-09-15T08:55:37.206Z,88.40
2017-09-15T08:58:05.441Z,89.30
2017-09-15T09:00:32.912Z,89.30
2017-09-15T09:03:00.368Z,86.20
2017-09-15T09:05:27.830Z,86.30
2017-09-15T09:07:55.296Z,86.70
2017-09-15T09:10:22.763Z,85.90
2017-09-15T09:12:50.223Z,84.80
2017-09-15T09:15:17.703Z,84.00
2017-09-15T09:17:45.942Z,82.90
2017-09-15T09:20:13.407Z,83.00
2017-09-15T09:22:40.883Z,81.30
2017-09-15T09:25:08.348Z,81.50
2017-09-15T09:27:36.580Z,83.40
2017-09-15T09:30:04.047Z,84.10
2017-09-15T09:32:31.511Z,82.80
2017-09-15T09:34:59.307Z,82.10
2017-09-15T09:37:27.535Z,82.60
2017-09-15T09:39:55.003Z,82.50
2017-09-15T09:42:22.474Z,81.60
2017-09-15T09:44:49.936Z,80.10
2017-09-15T09:47:17.408Z,80.20
2017-09-15T09:49:45.635Z,80.70
2017-09-15T09:52:13.103Z,80.70
2017-09-15T09:54:40.569Z,80.40
2017-09-15T09:57:08.032Z,80.80
2017-09-15T09:59:35.491Z,80.50
2017-09-15T10:02:03.117Z,80.70
2017-09-15T10:04:30.571Z,81.20
2017-09-15T10:06:58.039Z,79.30
2017-09-15T10:09:25.514Z,80.10
2017-09-15T10:11:52.979Z,82.80
2017-09-15T10:14:20.434Z,80.90
2017-09-15T10:16:47.907Z,78.40
2017-09-15T10:19:15.371Z,77.70
2017-09-15T10:21:42.839Z,77.10
2017-09-15T10:24:10.304Z,77.50
2017-09-15T10:26:38.541Z,74.10
2017-09-15T10:29:06.007Z,74.10
2017-09-15T10:31:33.472Z,74.70
2017-09-15T10:34:00.935Z,74.50
2017-09-15T10:39:06.773Z,75.30
2017-09-15T10:41:34.224Z,76.20
2017-09-15T10:44:01.703Z,75.50
2017-09-15T10:46:29.163Z,77.00
2017-09-15T10:48:56.648Z,75.10
2017-09-15T10:51:24.107Z,76.00
2017-09-15T10:53:51.586Z,74.70
2017-09-15T10:56:19.812Z,74.30
2017-09-15T10:58:53.635Z,73.30
2017-09-15T11:01:21.096Z,73.30
2017-09-15T11:03:48.568Z,73.30
2017-09-15T11:06:16.027Z,73.80
2017-09-15T11:08:43.495Z,73.00
2017-09-15T11:11:11.723Z,71.60
2017-09-15T11:13:39.191Z,71.60
2017-09-15T11:16:06.655Z,72.30
2017-09-15T11:18:34.132Z,72.50
2017-09-15T11:21:01.600Z,73.00
2017-09-15T11:23:29.059Z,74.00
2017-09-15T11:25:57.285Z,75.00
2017-09-15T11:28:24.757Z,75.00
2017-09-15T11:30:52.215Z,74.50
2017-09-15T11:33:19.688Z,71.80
2017-09-15T11:35:47.147Z,74.40
2017-09-15T11:38:14.626Z,72.10
2017-09-15T11:40:42.858Z,74.00
2017-09-15T11:43:10.322Z,73.80
2017-09-15T11:45:37.804Z,73.60
2017-09-15T11:48:05.272Z,73.70
2017-09-15T11:50:33.533Z,74.10
2017-09-15T11:53:00.991Z,74.60
2017-09-15T11:55:28.464Z,73.00
2017-09-15T11:57:55.920Z,73.00
2017-09-15T12:00:23.396Z,73.00
2017-09-15T12:02:51.627Z,72.60
2017-09-15T12:05:19.092Z,72.60
2017-09-15T12:07:46.550Z,72.80
2017-09-15T12:10:14.023Z,74.80
2017-09-15T12:12:41.499Z,76.10
2017-09-15T12:15:09.740Z,77.30
2017-09-15T12:17:37.199Z,77.20
2017-09-15T12:20:04.669Z,78.70
2017-09-15T12:22:32.131Z,79.20
2017-09-15T12:25:01.112Z,80.20
2017-09-15T12:27:28.579Z,80.20
2017-09-15T12:29:56.054Z,80.70
2017-09-15T12:32:23.524Z,80.90
2017-09-15T12:34:51.754Z,81.80
2017-09-15T12:37:19.243Z,81.80
2017-09-15T12:39:46.723Z,81.70
2017-09-15T12:42:14.948Z,81.10
2017-09-15T12:44:42.400Z,81.00
2017-09-15T12:47:09.875Z,79.70
2017-09-15T12:49:37.343Z,78.80
2017-09-15T12:52:04.808Z,79.50
2017-09-15T12:54:32.267Z,77.50
2017-09-15T12:56:59.735Z,77.60
2017-09-15T12:59:27.968Z,75.70
2017-09-15T13:01:55.475Z,75.60
2017-09-15T13:04:22.915Z,76.50
2017-09-15T13:06:50.379Z,77.80
2017-09-15T13:09:17.849Z,79.20
2017-09-15T13:11:46.093Z,77.00
2017-09-15T13:14:13.551Z,76.90
2017-09-15T13:16:41.026Z,76.70
2017-09-15T13:19:08.484Z,77.00
2017-09-15T13:21:35.947Z,75.20
2017-09-15T13:24:03.416Z,75.30
2017-09-15T13:26:31.652Z,73.60
2017-09-15T13:28:59.889Z,74.90
2017-09-15T13:31:27.380Z,75.00
2017-09-15T13:33:54.848Z,74.80
2017-09-15T13:36:22.314Z,75.00
2017-09-15T13:38:50.551Z,75.60
2017-09-15T13:41:18.015Z,75.40
2017-09-15T13:43:45.473Z,74.60
2017-09-15T13:46:12.946Z,73.10
2017-09-15T13:48:40.417Z,75.10
2017-09-15T13:51:07.883Z,74.50
2017-09-15T13:53:36.114Z,72.70
2017-09-15T13:56:03.571Z,72.70
2017-09-15T13:58:31.047Z,72.30
2017-09-15T14:00:58.506Z,73.40
2017-09-15T14:03:25.995Z,72.70
2017-09-15T14:05:54.222Z,74.50
2017-09-15T14:08:21.700Z,74.50
2017-09-15T14:10:49.177Z,74.60
2017-09-15T14:13:16.649Z,75.50
2017-09-15T14:15:44.870Z,74.60
2017-09-15T14:18:12.347Z,74.60
2017-09-15T14:20:39.799Z,76.50
2017-09-15T14:23:07.270Z,77.60
2017-09-15T14:25:34.745Z,77.90
2017-09-15T14:28:02.262Z,77.40
2017-09-15T14:30:29.727Z,79.10
2017-09-15T14:32:57.201Z,78.80
2017-09-15T14:35:24.668Z,78.10
2017-09-15T14:37:52.127Z,79.60
2017-09-15T14:40:19.589Z,79.80
2017-09-15T14:42:47.050Z,79.80
2017-09-15T14:45:16.216Z,81.70
2017-09-15T14:47:43.670Z,81.70
2017-09-15T14:50:11.139Z,83.10
2017-09-15T14:52:38.586Z,83.80
2017-09-15T14:55:06.052Z,82.00
2017-09-15T14:57:33.538Z,81.40
2017-09-15T15:00:00.999Z,82.00
2017-09-15T15:02:28.455Z,81.40
2017-09-15T15:04:55.923Z,81.90
2017-09-15T15:07:23.390Z,83.50
2017-09-15T15:09:50.856Z,83.80
2017-09-15T15:12:18.311Z,84.40
2017-09-15T15:14:45.779Z,84.50
2017-09-15T15:17:13.239Z,85.10
2017-09-15T15:19:40.716Z,84.50
2017-09-15T15:22:08.925Z,83.40
2017-09-15T15:24:36.399Z,83.40
2017-09-15T15:27:03.862Z,83.00
2017-09-15T15:29:31.323Z,80.50
2017-09-15T15:31:58.791Z,78.10
2017-09-15T15:34:26.245Z,78.10
2017-09-15T15:36:53.715Z,76.90
2017-09-15T15:39:21.167Z,76.30
2017-09-15T15:41:48.622Z,76.40
2017-09-15T15:44:16.077Z,74.50
2017-09-15T15:46:43.551Z,74.80
2017-09-15T15:49:11.002Z,75.30
2017-09-15T15:51:38.476Z,75.80
2017-09-15T15:54:06.704Z,77.70
2017-09-15T15:56:34.167Z,77.60
2017-09-15T15:59:01.628Z,77.90
2017-09-15T16:01:29.088Z,77.40
2017-09-15T16:03:56.543Z,78.00
2017-09-15T16:06:24.016Z,78.60
2017-09-15T16:08:51.476Z,79.40
2017-09-15T16:11:18.940Z,79.80
2017-09-15T16:13:46.400Z,80.70
2017-09-15T16:16:13.861Z,81.20
2017-09-15T16:18:41.326Z,81.40
2017-09-15T16:21:08.800Z,82.20
2017-09-15T16:23:37.019Z,82.60
2017-09-15T16:26:04.493Z,82.60
2017-09-15T16:28:31.966Z,81.70
2017-09-15T16:30:59.434Z,82.10
2017-09-15T16:33:26.882Z,81.50
2017-09-15T16:35:54.343Z,81.30
2017-09-15T16:38:27.462Z,80.60
2017-09-15T16:41:01.407Z,80.40
2017-09-15T16:43:34.470Z,80.40
2017-09-15T16:46:07.686Z,80.00
2017-09-15T16:48:40.784Z,80.10
2017-09-15T16:51:08.303Z,80.10
2017-09-15T16:53:36.647Z,80.10
2017-09-15T16:56:04.102Z,80.20
2017-09-15T16:58:31.561Z,80.50
2017-09-15T17:00:59.023Z,81.10
2017-09-15T17:03:26.490Z,81.40
2017-09-15T17:05:53.937Z,81.60
2017-09-15T17:08:21.399Z,82.10
2017-09-15T17:10:48.854Z,82.20
2017-09-15T17:13:16.325Z,82.30
2017-09-15T17:15:43.791Z,83.00
2017-09-15T17:18:11.244Z,83.40
2017-09-15T17:20:38.699Z,83.90
2017-09-15T17:23:06.162Z,84.50
2017-09-15T17:25:33.618Z,85.30
2017-09-15T17:28:01.079Z,85.90
2017-09-15T17:30:29.316Z,86.80
2017-09-15T17:32:56.787Z,86.50
2017-09-15T17:35:24.247Z,87.20
2017-09-15T17:37:51.715Z,88.60
2017-09-15T17:40:19.178Z,88.20
2017-09-15T17:42:46.642Z,88.70
2017-09-15T17:45:14.104Z,88.90
2017-09-15T17:47:41.562Z,89.40
2017-09-15T17:50:09.803Z,90.30
2017-09-15T17:52:37.268Z,90.30
2017-09-15T17:55:04.736Z,90.40
2017-09-15T17:57:32.183Z,90.40
2017-09-15T17:59:59.651Z,90.60
2017-09-15T18:02:27.107Z,90.70
2017-09-15T18:04:54.578Z,90.80
2017-09-15T18:07:22.036Z,90.70
2017-09-15T18:09:49.505Z,90.80
2017-09-15T18:12:17.734Z,91.00
2017-09-15T18:14:45.196Z,91.00
2017-09-15T18:17:12.659Z,91.00
2017-09-15T18:19:40.122Z,91.00
2017-09-15T18:22:07.596Z,91.00
2017-09-15T18:24:35.070Z,91.00
2017-09-15T18:27:02.518Z,90.90
2017-09-15T18:29:29.995Z,90.90
2017-09-15T18:31:58.211Z,90.80
2017-09-15T18:34:25.666Z,90.80
2017-09-15T18:36:53.159Z,90.90
2017-09-15T18:39:20.597Z,91.30
2017-09-15T18:41:48.062Z,91.10
2017-09-15T18:44:16.337Z,91.30
2017-09-15T18:46:43.797Z,91.30
2017-09-15T18:49:11.626Z,91.30
2017-09-15T18:51:39.095Z,91.20
2017-09-15T18:54:06.563Z,91.40
2017-09-15T18:56:34.010Z,91.50
2017-09-15T18:59:01.494Z,91.60
2017-09-15T19:01:28.962Z,91.70
2017-09-15T19:03:56.427Z,91.70
2017-09-15T19:06:23.900Z,91.70
2017-09-15T19:08:51.353Z,91.80
2017-09-15T19:11:18.827Z,91.70
2017-09-15T19:13:47.052Z,91.90
2017-09-15T19:16:14.512Z,91.80
2017-09-15T19:18:41.975Z,92.00
2017-09-15T19:21:09.450Z,91.90
2017-09-15T19:23:36.908Z,92.00
2017-09-15T19:26:04.380Z,92.00
2017-09-15T19:28:31.842Z,92.00
2017-09-15T19:30:59.294Z,92.00
2017-09-15T19:33:26.762Z,92.20
2017-09-15T19:35:54.985Z,92.90
2017-09-15T19:38:22.464Z,92.70
2017-09-15T19:40:49.926Z,92.80
2017-09-15T19:43:17.398Z,93.00
2017-09-15T19:45:44.863Z,93.20
2017-09-15T19:48:12.330Z,93.30
2017-09-15T19:50:40.649Z,93.60
2017-09-15T19:53:08.106Z,93.50
2017-09-15T19:55:35.587Z,93.50
2017-09-15T19:58:03.064Z,93.40
2017-09-15T20:00:30.505Z,93.30
2017-09-15T20:02:57.980Z,93.40
2017-09-15T20:05:25.488Z,93.50
2017-09-15T20:07:52.963Z,93.60
2017-09-15T20:10:20.439Z,93.80
2017-09-15T20:12:47.920Z,93.60
2017-09-15T20:15:15.388Z,93.90
2017-09-15T20:17:46.273Z,93.80
2017-09-15T20:20:13.753Z,93.90
2017-09-15T20:22:41.219Z,94.00
2017-09-15T20:25:08.693Z,93.90
2017-09-15T20:27:36.176Z,93.80
2017-09-15T20:30:04.406Z,93.90
2017-09-15T20:32:31.873Z,93.90
2017-09-15T20:34:59.357Z,93.90
2017-09-15T20:37:27.588Z,93.80
2017-09-15T20:39:55.340Z,93.80
2017-09-15T20:42:23.014Z,93.60
2017-09-15T20:44:50.487Z,93.60
2017-09-15T20:47:17.957Z,93.70
2017-09-15T20:49:45.428Z,93.60
2017-09-15T20:52:13.662Z,94.00
2017-09-15T20:54:41.133Z,93.70
2017-09-15T20:57:08.610Z,93.70
2017-09-15T20:59:36.094Z,93.80
2017-09-15T21:02:04.324Z,94.00
2017-09-15T21:04:31.808Z,93.90
2017-09-15T21:06:59.276Z,93.90
2017-09-15T21:09:27.516Z,94.20
2017-09-15T21:11:54.983Z,94.00
2017-09-15T21:14:23.106Z,94.00
2017-09-15T21:16:54.466Z,94.00
2017-09-15T21:19:25.196Z,94.00
2017-09-15T21:21:52.755Z,93.80
2017-09-15T21:24:20.232Z,93.80
2017-09-15T21:26:47.701Z,93.60
2017-09-15T21:29:15.189Z,93.70
2017-09-15T21:31:43.432Z,93.60
2017-09-15T21:34:10.913Z,93.30
2017-09-15T21:36:38.389Z,93.50
2017-09-15T21:39:06.624Z,93.50
2017-09-15T21:41:34.104Z,93.60
2017-09-15T21:44:01.574Z,93.40
2017-09-15T21:46:29.812Z,93.50
2017-09-15T21:48:57.282Z,93.30
2017-09-15T21:51:24.764Z,93.50
2017-09-15T21:53:53.000Z,94.20
2017-09-15T21:56:20.491Z,94.30
2017-09-15T21:58:48.734Z,94.60
2017-09-15T22:01:16.215Z,94.60
2017-09-15T22:03:50.340Z,94.70
2017-09-15T22:06:18.609Z,94.70
2017-09-15T22:08:46.088Z,94.80
2017-09-15T22:11:14.372Z,94.60
2017-09-15T22:13:42.611Z,94.60
2017-09-15T22:16:10.613Z,94.60
2017-09-15T22:18:38.081Z,94.50
2017-09-15T22:21:05.560Z,94.50
2017-09-15T22:23:33.045Z,94.40
2017-09-15T22:26:00.536Z,94.20
2017-09-15T22:28:28.029Z,94.30
2017-09-15T22:30:55.512Z,94.10
2017-09-15T22:33:23.739Z,94.40
2017-09-15T22:35:51.227Z,94.40
2017-09-15T22:38:18.692Z,94.40
2017-09-15T22:40:46.989Z,94.50
2017-09-15T22:43:15.219Z,94.60
2017-09-15T22:45:42.702Z,94.60
2017-09-15T22:48:10.189Z,94.70
2017-09-15T22:50:37.657Z,94.70
2017-09-15T22:53:05.138Z,94.70
2017-09-15T22:55:32.605Z,94.80
2017-09-15T22:58:00.094Z,94.60
2017-09-15T23:00:27.611Z,94.60
2017-09-15T23:02:55.081Z,94.60
2017-09-15T23:05:22.588Z,94.50
2017-09-15T23:07:50.842Z,94.70
2017-09-15T23:10:18.312Z,94.50
2017-09-15T23:12:46.547Z,94.60
2017-09-15T23:15:15.231Z,94.80
2017-09-15T23:17:46.526Z,94.90
2017-09-15T23:20:14.762Z,94.90
2017-09-15T23:22:42.240Z,94.90
2017-09-15T23:25:09.713Z,95.00
2017-09-15T23:27:37.956Z,94.80
2017-09-15T23:30:05.438Z,94.90
2017-09-15T23:32:32.917Z,94.50
2017-09-15T23:35:01.363Z,94.90
2017-09-15T23:37:28.856Z,94.80
2017-09-15T23:39:57.088Z,95.30
2017-09-15T23:42:24.563Z,95.30
2017-09-15T23:44:52.052Z,95.60
2017-09-15T23:47:19.524Z,95.50
2017-09-15T23:49:47.004Z,95.60
2017-09-15T23:52:14.471Z,95.70
2017-09-15T23:54:41.955Z,95.70
2017-09-15T23:57:09.419Z,95.60
2017-09-15T23:59:36.904Z,95.70
